createdAt,value
2023-05-02T00:01:31.655Z,19.05
2023-05-02T00:03:58.866Z,22.08
2023-05-02T00:06:26.762Z,21.65
2023-05-02T00:08:53.920Z,18.08
2023-05-02T00:11:21.317Z,24.73
2023-05-02T00:13:48.768Z,25.23
2023-05-02T00:16:16.065Z,20.10
2023-05-02T00:18:43.259Z,20.55
2023-05-02T00:21:10.324Z,27.55
2023-05-02T00:23:37.447Z,19.75
2023-05-02T00:26:09.661Z,20.70
2023-05-02T00:28:40.542Z,20.90
2023-05-02T00:31:07.694Z,21.13
2023-05-02T00:33:34.729Z,21.10
2023-05-02T00:36:01.729Z,17.83
2023-05-02T00:38:29.007Z,17.95
2023-05-02T00:40:56.034Z,19.92
2023-05-02T00:43:23.304Z,22.50
2023-05-02T00:45:51.124Z,16.08
2023-05-02T00:48:20.744Z,24.98
2023-05-02T00:50:47.874Z,30.25
2023-05-02T00:53:15.544Z,19.58
2023-05-02T00:55:42.739Z,23.60
2023-05-02T00:58:14.924Z,16.75
2023-05-02T01:00:59.795Z,17.77
2023-05-02T01:03:46.741Z,17.95
2023-05-02T01:06:29.636Z,18.30
2023-05-02T01:09:13.479Z,18.08
2023-05-02T01:11:52.371Z,16.95
2023-05-02T01:14:21.603Z,22.98
2023-05-02T01:16:50.395Z,23.35
2023-05-02T01:19:27.083Z,17.42
2023-05-02T01:21:55.523Z,22.63
2023-05-02T01:24:29.828Z,17.42
2023-05-02T01:27:22.266Z,22.77
2023-05-02T01:29:52.093Z,21.88
2023-05-02T01:32:22.327Z,20.90
2023-05-02T01:34:52.865Z,24.27
2023-05-02T01:37:22.524Z,22.48
2023-05-02T01:39:51.333Z,20.85
2023-05-02T01:42:20.544Z,19.63
2023-05-02T01:44:49.204Z,27.08
2023-05-02T01:47:17.692Z,19.92
2023-05-02T01:49:45.957Z,18.02
2023-05-02T01:52:15.800Z,17.25
2023-05-02T01:54:43.867Z,19.55
2023-05-02T01:57:12.813Z,20.23
2023-05-02T01:59:41.307Z,14.32
2023-05-02T02:02:11.694Z,19.33
2023-05-02T02:04:40.808Z,17.00
2023-05-02T02:07:13.304Z,18.25
2023-05-02T02:09:41.083Z,20.63
2023-05-02T02:12:29.409Z,27.15
2023-05-02T02:15:16.681Z,28.98
2023-05-02T02:17:49.703Z,22.02
2023-05-02T02:20:17.605Z,19.65
2023-05-02T02:22:46.253Z,18.88
2023-05-02T02:25:16.229Z,23.15
2023-05-02T02:27:44.117Z,26.60
2023-05-02T02:30:11.974Z,28.27
2023-05-02T02:32:39.143Z,32.25
2023-05-02T02:35:07.555Z,26.90
2023-05-02T02:38:01.681Z,27.95
2023-05-02T02:40:30.545Z,29.15
2023-05-02T02:43:00.763Z,25.58
2023-05-02T02:46:00.479Z,22.95
2023-05-02T02:48:38.887Z,23.92
2023-05-02T02:51:15.072Z,33.15
2023-05-02T02:53:53.405Z,32.03
2023-05-02T02:56:28.666Z,25.05
2023-05-02T02:59:02.164Z,31.70
2023-05-02T03:01:32.734Z,30.20
2023-05-02T03:04:04.596Z,28.50
2023-05-02T03:06:31.961Z,22.70
2023-05-02T03:08:59.108Z,27.67
2023-05-02T03:11:29.970Z,23.17
2023-05-02T03:13:58.407Z,24.52
2023-05-02T03:16:38.291Z,29.95
2023-05-02T03:19:09.364Z,27.13
2023-05-02T03:21:36.525Z,25.23
2023-05-02T03:24:10.546Z,28.40
2023-05-02T03:26:37.705Z,26.45
2023-05-02T03:29:07.311Z,28.80
2023-05-02T03:31:39.332Z,27.00
2023-05-02T03:34:07.147Z,29.58
2023-05-02T03:36:35.669Z,23.15
2023-05-02T03:39:02.836Z,28.77
2023-05-02T03:41:30.409Z,30.95
2023-05-02T03:44:04.002Z,26.73
2023-05-02T03:46:31.839Z,20.88
2023-05-02T03:48:59.022Z,27.42
2023-05-02T03:51:26.905Z,26.42
2023-05-02T03:53:56.835Z,26.85
2023-05-02T03:56:24.440Z,26.42
2023-05-02T03:59:01.970Z,28.25
2023-05-02T04:01:29.211Z,34.70
2023-05-02T04:03:58.267Z,30.70
2023-05-02T04:06:27.753Z,26.95
2023-05-02T04:08:59.835Z,22.85
2023-05-02T04:11:33.864Z,31.00
2023-05-02T04:14:02.901Z,27.73
2023-05-02T04:16:30.147Z,27.60
2023-05-02T04:18:57.713Z,22.17
2023-05-02T04:21:25.816Z,23.10
2023-05-02T04:23:52.983Z,29.17
2023-05-02T04:26:20.132Z,25.85
2023-05-02T04:28:53.870Z,23.45
2023-05-02T04:31:21.153Z,27.40
2023-05-02T04:33:53.595Z,29.83
2023-05-02T04:36:26.383Z,22.98
2023-05-02T04:38:53.812Z,31.92
2023-05-02T04:41:21.765Z,30.13
2023-05-02T04:43:54.930Z,28.63
2023-05-02T04:46:23.144Z,36.53
2023-05-02T04:48:50.601Z,29.63
2023-05-02T04:51:17.849Z,34.33
2023-05-02T04:53:48.139Z,32.65
2023-05-02T04:56:15.435Z,19.67
2023-05-02T04:58:42.879Z,24.77
2023-05-02T05:01:12.029Z,27.15
2023-05-02T05:03:40.238Z,25.33
2023-05-02T05:06:08.632Z,21.40
2023-05-02T05:08:35.726Z,19.58
2023-05-02T05:11:05.249Z,20.23
2023-05-02T05:13:33.401Z,27.70
2023-05-02T05:16:00.551Z,21.42
2023-05-02T05:18:31.806Z,21.92
2023-05-02T05:20:58.934Z,18.88
2023-05-02T05:23:26.225Z,19.23
2023-05-02T05:25:53.310Z,24.23
2023-05-02T05:28:20.475Z,23.10
2023-05-02T05:30:47.753Z,20.05
2023-05-02T05:33:19.724Z,21.35
2023-05-02T05:35:47.182Z,24.70
2023-05-02T05:38:14.265Z,29.67
2023-05-02T05:40:44.053Z,21.02
2023-05-02T05:43:12.085Z,31.58
2023-05-02T05:45:40.004Z,35.42
2023-05-02T05:48:07.823Z,26.95
2023-05-02T05:50:41.160Z,35.30
2023-05-02T05:53:08.283Z,35.60
2023-05-02T05:55:39.642Z,29.30
2023-05-02T05:58:08.953Z,22.95
2023-05-02T06:00:38.635Z,36.70
2023-05-02T06:03:09.595Z,28.77
2023-05-02T06:05:37.960Z,27.77
2023-05-02T06:08:05.091Z,31.33
2023-05-02T06:10:32.988Z,25.25
2023-05-02T06:13:00.361Z,27.50
2023-05-02T06:15:35.234Z,28.33
2023-05-02T06:18:04.579Z,29.42
2023-05-02T06:20:31.662Z,41.42
2023-05-02T06:22:59.420Z,30.58
2023-05-02T06:25:26.413Z,30.35
2023-05-02T06:27:53.604Z,32.85
2023-05-02T06:30:20.977Z,26.48
2023-05-02T06:32:48.040Z,31.10
2023-05-02T06:35:15.392Z,26.85
2023-05-02T06:37:42.438Z,30.25
2023-05-02T06:40:10.291Z,32.03
2023-05-02T06:42:37.318Z,28.52
2023-05-02T06:45:04.795Z,31.58
2023-05-02T06:47:33.154Z,25.58
2023-05-02T06:50:00.629Z,32.80
2023-05-02T06:52:29.604Z,37.33
2023-05-02T06:54:57.066Z,32.00
2023-05-02T06:57:25.126Z,36.05
2023-05-02T06:59:52.271Z,35.53
2023-05-02T07:02:19.219Z,30.25
2023-05-02T07:04:46.921Z,36.58
2023-05-02T07:07:15.839Z,34.78
2023-05-02T07:09:44.067Z,38.88
2023-05-02T07:12:11.131Z,28.95
2023-05-02T07:14:38.156Z,36.40
2023-05-02T07:17:05.512Z,32.78
2023-05-02T07:19:32.778Z,33.00
2023-05-02T07:22:00.031Z,35.05
2023-05-02T07:24:27.129Z,35.70
2023-05-02T07:26:54.340Z,27.63
2023-05-02T07:29:21.375Z,27.02
2023-05-02T07:31:48.719Z,23.55
2023-05-02T07:34:15.870Z,25.23
2023-05-02T07:36:43.021Z,22.48
2023-05-02T07:39:10.447Z,20.52
2023-05-02T07:41:37.541Z,20.27
2023-05-02T07:44:04.672Z,29.85
2023-05-02T07:46:31.798Z,27.60
2023-05-02T07:48:58.923Z,23.52
2023-05-02T07:51:26.984Z,20.40
2023-05-02T07:53:55.975Z,22.08
2023-05-02T07:56:22.986Z,23.35
2023-05-02T07:58:51.707Z,19.40
2023-05-02T08:01:19.010Z,21.98
2023-05-02T08:03:47.330Z,22.88
2023-05-02T08:06:14.666Z,22.40
2023-05-02T08:08:41.861Z,19.58
2023-05-02T08:11:08.949Z,19.50
2023-05-02T08:13:36.186Z,15.60
2023-05-02T08:16:03.304Z,22.98
2023-05-02T08:18:30.420Z,20.98
2023-05-02T08:20:58.928Z,20.17
2023-05-02T08:23:25.974Z,21.17
2023-05-02T08:25:53.260Z,22.73
2023-05-02T08:28:20.257Z,17.25
2023-05-02T08:30:47.385Z,19.10
2023-05-02T08:33:17.769Z,15.95
2023-05-02T08:35:44.882Z,20.40
2023-05-02T08:38:12.073Z,16.23
2023-05-02T08:40:42.850Z,19.48
2023-05-02T08:43:12.288Z,20.08
2023-05-02T08:45:42.403Z,18.60
2023-05-02T08:48:15.154Z,16.02
2023-05-02T08:50:46.761Z,18.23
2023-05-02T08:53:14.857Z,21.63
2023-05-02T08:55:43.173Z,24.27
2023-05-02T08:58:13.271Z,18.95
2023-05-02T09:00:42.416Z,19.48
2023-05-02T09:03:24.092Z,22.08
2023-05-02T09:05:57.213Z,20.77
2023-05-02T09:08:25.073Z,22.90
2023-05-02T09:10:52.141Z,18.17
2023-05-02T09:13:38.360Z,18.80
2023-05-02T09:16:12.713Z,21.73
2023-05-02T09:18:46.943Z,28.25
2023-05-02T09:21:21.263Z,28.15
2023-05-02T09:23:53.964Z,23.45
2023-05-02T09:26:35.395Z,23.10
2023-05-02T09:29:05.555Z,20.38
2023-05-02T09:34:12.122Z,18.77
2023-05-02T09:36:43.304Z,13.38
2023-05-02T09:39:13.823Z,14.75
2023-05-02T09:41:48.514Z,15.93
2023-05-02T09:44:21.431Z,21.27
2023-05-02T09:46:54.173Z,17.02
2023-05-02T09:49:46.345Z,17.05
2023-05-02T09:52:16.066Z,14.70
2023-05-02T09:54:47.529Z,23.00
2023-05-02T09:57:15.097Z,18.45
2023-05-02T09:59:52.915Z,18.77
2023-05-02T10:02:22.170Z,20.38
2023-05-02T10:04:51.733Z,18.92
2023-05-02T10:07:21.406Z,18.88
2023-05-02T10:09:52.843Z,16.42
2023-05-02T10:12:25.003Z,23.50
2023-05-02T10:15:00.576Z,18.63
2023-05-02T10:17:49.597Z,17.92
2023-05-02T10:20:23.446Z,24.02
2023-05-02T10:22:52.068Z,21.90
2023-05-02T10:25:19.515Z,24.27
2023-05-02T10:27:46.855Z,24.13
2023-05-02T10:30:14.985Z,20.33
2023-05-02T10:32:43.979Z,18.20
2023-05-02T10:35:12.075Z,18.90
2023-05-02T10:37:41.317Z,29.10
2023-05-02T10:40:12.810Z,23.48
2023-05-02T10:42:43.836Z,28.05
2023-05-02T10:45:36.987Z,28.98
2023-05-02T10:48:22.964Z,21.98
2023-05-02T10:50:55.916Z,28.40
2023-05-02T10:53:37.025Z,25.95
2023-05-02T10:56:22.748Z,35.17
2023-05-02T10:58:51.533Z,30.50
2023-05-02T11:01:36.471Z,37.20
2023-05-02T11:04:08.544Z,31.40
2023-05-02T11:06:38.233Z,34.40
2023-05-02T11:09:32.385Z,35.55
2023-05-02T11:11:59.727Z,41.47
2023-05-02T11:14:28.139Z,36.67
2023-05-02T11:17:00.783Z,33.78
2023-05-02T11:19:31.444Z,33.45
2023-05-02T11:22:22.031Z,35.60
2023-05-02T11:24:51.173Z,33.45
2023-05-02T11:27:30.519Z,37.40
2023-05-02T11:29:57.743Z,41.03
2023-05-02T11:32:27.526Z,36.38
2023-05-02T11:34:56.151Z,41.80
2023-05-02T11:37:23.221Z,36.92
2023-05-02T11:39:51.704Z,36.63
2023-05-02T11:42:32.638Z,26.80
2023-05-02T11:45:01.593Z,26.48
2023-05-02T11:47:29.752Z,27.85
2023-05-02T11:49:58.000Z,25.20
2023-05-02T11:52:25.110Z,31.58
2023-05-02T11:54:56.990Z,32.20
2023-05-02T11:57:24.218Z,23.70
2023-05-02T11:59:55.340Z,27.80
2023-05-02T12:02:39.366Z,34.83
2023-05-02T12:05:08.260Z,16.17
2023-05-02T12:07:39.838Z,13.13
2023-05-02T12:10:08.470Z,6.88
2023-05-02T12:12:36.379Z,5.25
2023-05-02T12:15:08.631Z,9.30
2023-05-02T12:17:40.846Z,7.18
2023-05-02T12:20:12.655Z,6.03
2023-05-02T12:22:40.048Z,6.18
2023-05-02T12:25:07.951Z,5.10
2023-05-02T12:27:35.415Z,3.85
2023-05-02T12:30:02.960Z,3.90
2023-05-02T12:32:35.748Z,5.57
2023-05-02T12:35:04.031Z,2.90
2023-05-02T12:37:31.241Z,3.42
2023-05-02T12:39:58.497Z,2.70
2023-05-02T12:42:26.988Z,3.25
2023-05-02T12:44:54.157Z,5.10
2023-05-02T12:47:23.058Z,3.88
2023-05-02T12:49:59.300Z,7.93
2023-05-02T12:52:50.070Z,4.30
2023-05-02T12:55:20.020Z,6.53
2023-05-02T12:57:47.662Z,4.55
2023-05-02T13:00:18.379Z,11.73
2023-05-02T13:02:45.505Z,21.30
2023-05-02T13:05:16.708Z,7.90
2023-05-02T13:07:44.077Z,14.40
2023-05-02T13:10:12.311Z,8.82
2023-05-02T13:12:40.255Z,11.02
2023-05-02T13:15:09.094Z,10.63
2023-05-02T13:17:36.372Z,7.22
2023-05-02T13:20:03.835Z,6.53
2023-05-02T13:22:31.318Z,7.47
2023-05-02T13:24:58.364Z,5.03
2023-05-02T13:27:25.911Z,7.68
2023-05-02T13:29:53.142Z,8.80
2023-05-02T13:32:20.615Z,2.58
2023-05-02T13:34:48.213Z,2.28
2023-05-02T13:37:15.606Z,2.20
2023-05-02T13:39:42.695Z,4.25
2023-05-02T13:42:10.013Z,3.22
2023-05-02T13:44:37.010Z,23.23
2023-05-02T13:47:04.300Z,14.35
2023-05-02T13:49:31.700Z,12.23
2023-05-02T13:51:58.792Z,9.73
2023-05-02T13:54:26.335Z,10.90
2023-05-02T13:56:53.557Z,8.38
2023-05-02T13:59:20.570Z,11.98
2023-05-02T14:01:47.773Z,10.40
2023-05-02T14:04:15.051Z,9.77
2023-05-02T14:06:42.340Z,11.05
2023-05-02T14:09:10.008Z,8.00
2023-05-02T14:11:37.232Z,14.48
2023-05-02T14:14:04.260Z,8.35
2023-05-02T14:16:31.515Z,14.82
2023-05-02T14:18:59.039Z,14.35
2023-05-02T14:21:26.192Z,14.73
2023-05-02T14:23:53.177Z,21.48
2023-05-02T14:26:20.575Z,20.05
2023-05-02T14:28:47.634Z,19.67
2023-05-02T14:31:14.921Z,20.38
2023-05-02T14:33:43.588Z,21.35
2023-05-02T14:36:10.727Z,16.42
2023-05-02T14:38:37.795Z,26.88
2023-05-02T14:41:06.070Z,22.50
2023-05-02T14:43:33.196Z,18.92
2023-05-02T14:46:00.235Z,16.88
2023-05-02T14:48:27.416Z,32.20
2023-05-02T14:50:54.409Z,23.50
2023-05-02T14:53:21.650Z,28.80
2023-05-02T14:55:48.677Z,24.92
2023-05-02T14:58:20.776Z,18.52
2023-05-02T15:00:48.311Z,19.33
2023-05-02T15:03:15.728Z,31.65
2023-05-02T15:05:43.029Z,22.15
2023-05-02T15:08:10.218Z,17.45
2023-05-02T15:10:38.401Z,16.00
2023-05-02T15:13:06.182Z,6.70
2023-05-02T15:15:33.337Z,11.20
2023-05-02T15:18:00.484Z,14.82
2023-05-02T15:20:27.642Z,13.55
2023-05-02T15:22:54.826Z,21.85
2023-05-02T15:25:21.910Z,23.70
2023-05-02T15:27:48.956Z,12.68
2023-05-02T15:30:17.887Z,14.65
2023-05-02T15:32:45.133Z,21.15
2023-05-02T15:35:12.687Z,13.88
2023-05-02T15:37:39.782Z,13.95
2023-05-02T15:40:07.855Z,13.00
2023-05-02T15:42:37.261Z,11.55
2023-05-02T15:45:04.857Z,7.93
2023-05-02T15:47:32.801Z,8.60
2023-05-02T15:50:00.647Z,19.63
2023-05-02T15:52:27.951Z,10.88
2023-05-02T15:54:56.283Z,14.50
2023-05-02T15:57:23.416Z,18.30
2023-05-02T15:59:50.431Z,11.35
2023-05-02T16:02:17.637Z,17.05
2023-05-02T16:04:44.707Z,12.05
2023-05-02T16:07:11.847Z,10.40
2023-05-02T16:09:39.941Z,12.75
2023-05-02T16:12:07.468Z,8.80
2023-05-02T16:14:35.024Z,10.82
2023-05-02T16:17:06.437Z,18.20
2023-05-02T16:19:33.723Z,7.45
2023-05-02T16:22:01.499Z,20.40
2023-05-02T16:24:28.987Z,9.52
2023-05-02T16:26:56.639Z,11.65
2023-05-02T16:29:24.315Z,15.15
2023-05-02T16:31:51.730Z,13.23
2023-05-02T16:34:19.145Z,14.95
2023-05-02T16:36:47.122Z,9.20
2023-05-02T16:39:14.571Z,7.78
2023-05-02T16:41:42.436Z,8.48
2023-05-02T16:44:10.764Z,14.55
2023-05-02T16:46:38.311Z,7.43
2023-05-02T16:49:06.901Z,8.40
2023-05-02T16:51:34.251Z,6.13
2023-05-02T16:54:01.501Z,11.38
2023-05-02T16:56:29.545Z,9.10
2023-05-02T16:58:56.688Z,6.82
2023-05-02T17:01:25.115Z,6.13
2023-05-02T17:03:52.412Z,6.05
2023-05-02T17:06:19.566Z,9.60
2023-05-02T17:08:46.884Z,7.15
2023-05-02T17:11:13.918Z,6.75
2023-05-02T17:13:42.535Z,5.57
2023-05-02T17:16:10.039Z,5.88
2023-05-02T17:18:37.404Z,9.00
2023-05-02T17:21:04.793Z,6.75
2023-05-02T17:23:31.810Z,7.22
2023-05-02T17:25:59.046Z,8.43
2023-05-02T17:28:26.090Z,5.78
2023-05-02T17:30:54.814Z,5.88
2023-05-02T17:33:22.384Z,10.60
2023-05-02T17:35:49.546Z,6.68
2023-05-02T17:38:16.666Z,10.48
2023-05-02T17:40:43.736Z,11.45
2023-05-02T17:43:11.168Z,7.60
2023-05-02T17:45:39.656Z,10.57
2023-05-02T17:48:06.851Z,5.00
2023-05-02T17:50:40.960Z,10.05
2023-05-02T17:53:08.663Z,11.85
2023-05-02T17:55:39.480Z,16.30
2023-05-02T17:58:06.875Z,14.68
2023-05-02T18:00:34.016Z,30.27
2023-05-02T18:03:01.249Z,22.58
2023-05-02T18:05:28.299Z,27.95
2023-05-02T18:07:56.143Z,21.83
2023-05-02T18:10:23.150Z,24.33
2023-05-02T18:12:50.580Z,15.98
2023-05-02T18:15:17.748Z,12.05
2023-05-02T18:17:44.808Z,8.85
2023-05-02T18:20:12.333Z,8.27
2023-05-02T18:22:40.115Z,12.73
2023-05-02T18:25:07.801Z,10.23
2023-05-02T18:27:35.164Z,16.95
2023-05-02T18:30:02.619Z,11.98
2023-05-02T18:32:31.607Z,15.35
2023-05-02T18:34:58.771Z,23.77
2023-05-02T18:37:31.809Z,16.23
2023-05-02T18:39:59.224Z,14.45
2023-05-02T18:42:26.732Z,14.32
2023-05-02T18:44:54.008Z,29.40
2023-05-02T18:47:21.780Z,15.45
2023-05-02T18:49:50.370Z,14.80
2023-05-02T18:52:17.587Z,15.68
2023-05-02T18:54:44.725Z,18.25
2023-05-02T18:57:12.779Z,10.52
2023-05-02T18:59:39.837Z,14.82
2023-05-02T19:02:07.397Z,12.48
2023-05-02T19:04:34.596Z,18.30
2023-05-02T19:07:01.772Z,14.55
2023-05-02T19:09:29.016Z,15.70
2023-05-02T19:11:56.002Z,19.65
2023-05-02T19:14:23.322Z,14.85
2023-05-02T19:16:51.098Z,8.98
2023-05-02T19:19:18.716Z,10.85
2023-05-02T19:21:47.147Z,13.38
2023-05-02T19:24:14.309Z,12.48
2023-05-02T19:26:42.159Z,11.48
2023-05-02T19:29:09.491Z,6.45
2023-05-02T19:31:37.106Z,11.15
2023-05-02T19:34:04.199Z,8.20
2023-05-02T19:36:32.381Z,7.13
2023-05-02T19:38:59.550Z,12.70
2023-05-02T19:41:26.797Z,8.60
2023-05-02T19:43:55.790Z,7.95
2023-05-02T19:46:23.141Z,9.48
2023-05-02T19:48:50.587Z,12.23
2023-05-02T19:51:27.592Z,16.38
2023-05-02T19:53:56.972Z,10.15
2023-05-02T19:56:25.842Z,13.27
2023-05-02T19:58:54.132Z,14.15
2023-05-02T20:01:21.736Z,8.02
2023-05-02T20:03:49.153Z,7.55
2023-05-02T20:06:16.570Z,9.40
2023-05-02T20:08:43.679Z,7.75
2023-05-02T20:11:11.108Z,11.70
2023-05-02T20:13:38.521Z,14.98
2023-05-02T20:16:05.893Z,8.80
2023-05-02T20:18:33.003Z,15.45
2023-05-02T20:21:00.566Z,10.35
2023-05-02T20:23:27.968Z,7.80
2023-05-02T20:25:55.761Z,10.23
2023-05-02T20:28:22.887Z,9.70
2023-05-02T20:30:50.780Z,9.82
2023-05-02T20:33:19.493Z,9.20
2023-05-02T20:35:56.060Z,8.18
2023-05-02T20:38:24.395Z,8.00
2023-05-02T20:40:51.676Z,8.65
2023-05-02T20:43:19.084Z,9.80
2023-05-02T20:45:47.316Z,5.07
2023-05-02T20:48:18.368Z,15.88
2023-05-02T20:50:54.965Z,9.45
2023-05-02T20:53:23.933Z,5.15
2023-05-02T20:55:51.500Z,7.65
2023-05-02T20:58:18.566Z,6.43
2023-05-02T21:00:52.719Z,8.07
2023-05-02T21:03:20.699Z,9.73
2023-05-02T21:05:52.862Z,6.60
2023-05-02T21:08:21.964Z,5.70
2023-05-02T21:10:49.247Z,7.90
2023-05-02T21:13:16.572Z,6.13
2023-05-02T21:15:43.796Z,5.97
2023-05-02T21:18:11.628Z,6.55
2023-05-02T21:20:41.642Z,11.02
2023-05-02T21:23:12.313Z,6.53
2023-05-02T21:25:39.771Z,8.65
2023-05-02T21:28:06.812Z,4.20
2023-05-02T21:30:34.002Z,9.02
2023-05-02T21:33:01.061Z,9.85
2023-05-02T21:35:28.964Z,7.03
2023-05-02T21:37:56.023Z,5.80
2023-05-02T21:40:23.126Z,9.00
2023-05-02T21:42:50.175Z,10.38
2023-05-02T21:45:17.460Z,6.93
2023-05-02T21:47:44.656Z,12.75
2023-05-02T21:50:11.777Z,7.90
2023-05-02T21:52:38.970Z,8.55
2023-05-02T21:55:06.435Z,9.02
2023-05-02T21:57:33.537Z,10.13
2023-05-02T22:00:00.919Z,9.55
2023-05-02T22:02:28.602Z,7.63
2023-05-02T22:04:57.931Z,8.93
2023-05-02T22:07:25.219Z,8.10
2023-05-02T22:09:52.614Z,8.25
2023-05-02T22:12:25.682Z,13.30
2023-05-02T22:14:52.808Z,6.63
2023-05-02T22:17:21.753Z,10.40
2023-05-02T22:19:50.277Z,7.25
2023-05-02T22:22:17.286Z,9.32
2023-05-02T22:24:44.392Z,9.82
2023-05-02T22:27:11.441Z,8.30
2023-05-02T22:29:38.573Z,9.70
2023-05-02T22:32:06.029Z,7.55
2023-05-02T22:34:33.407Z,8.40
2023-05-02T22:37:00.537Z,6.35
2023-05-02T22:39:27.900Z,7.25
2023-05-02T22:41:54.914Z,8.98
2023-05-02T22:44:21.946Z,6.82
2023-05-02T22:46:49.161Z,5.93
2023-05-02T22:49:16.515Z,7.07
2023-05-02T22:51:45.420Z,9.80
2023-05-02T22:54:15.153Z,10.88
2023-05-02T22:56:42.322Z,9.35
2023-05-02T22:59:10.036Z,9.15
2023-05-02T23:01:37.252Z,12.85
2023-05-02T23:04:04.554Z,11.95
2023-05-02T23:06:31.892Z,13.35
2023-05-02T23:08:58.914Z,15.30
2023-05-02T23:11:26.115Z,12.93
2023-05-02T23:13:53.178Z,18.55
2023-05-02T23:16:20.415Z,16.83
2023-05-02T23:18:47.797Z,15.25
2023-05-02T23:21:16.372Z,17.15
2023-05-02T23:23:43.573Z,13.60
2023-05-02T23:26:11.151Z,14.45
2023-05-02T23:28:38.970Z,14.73
2023-05-02T23:31:07.106Z,13.90
2023-05-02T23:33:36.120Z,16.67
2023-05-02T23:36:03.948Z,31.08
2023-05-02T23:38:31.740Z,13.13
2023-05-02T23:40:59.011Z,12.15
2023-05-02T23:43:26.491Z,15.70
2023-05-02T23:45:53.501Z,14.93
2023-05-02T23:48:20.561Z,13.82
2023-05-02T23:50:47.882Z,11.40
2023-05-02T23:53:14.848Z,14.45
2023-05-02T23:55:42.018Z,12.80
2023-05-02T23:58:08.981Z,19.30
